createdAt,value
2017-12-27T00:00:58.353Z,996.08
2017-12-27T00:02:19.772Z,996.09
2017-12-27T00:03:41.645Z,996.06
2017-12-27T00:05:03.815Z,996.07
2017-12-27T00:06:25.759Z,996.01
2017-12-27T00:07:47.624Z,995.96
2017-12-27T00:09:09.550Z,995.99
2017-12-27T00:10:31.240Z,995.94
2017-12-27T00:11:52.904Z,995.93
2017-12-27T00:13:14.258Z,995.91
2017-12-27T00:14:36.533Z,995.83
2017-12-27T00:15:58.004Z,995.81
2017-12-27T00:17:20.290Z,995.7
2017-12-27T00:18:42.416Z,995.7
2017-12-27T00:20:04.303Z,995.66
2017-12-27T00:21:26.206Z,995.63
2017-12-27T00:22:48.075Z,995.59
2017-12-27T00:24:10.230Z,995.6
2017-12-27T00:25:32.121Z,995.57
2017-12-27T00:26:54.096Z,995.59
2017-12-27T00:28:15.705Z,995.59
2017-12-27T00:29:37.566Z,995.58
2017-12-27T00:30:59.173Z,995.56
2017-12-27T00:32:20.753Z,995.51
2017-12-27T00:33:42.650Z,995.5
2017-12-27T00:35:04.291Z,995.43
2017-12-27T00:36:26.485Z,995.4
2017-12-27T00:37:48.663Z,995.33
2017-12-27T00:39:10.513Z,995.36
2017-12-27T00:40:31.854Z,995.28
2017-12-27T00:41:53.724Z,995.25
2017-12-27T00:43:15.374Z,995.24
2017-12-27T00:44:37.510Z,995.23
2017-12-27T00:45:59.630Z,995.25
2017-12-27T00:47:21.748Z,995.21
2017-12-27T00:48:43.603Z,995.23
2017-12-27T00:50:05.785Z,995.23
2017-12-27T00:51:27.913Z,995.23
2017-12-27T00:52:49.507Z,995.25
2017-12-27T00:54:10.854Z,995.24
2017-12-27T00:55:33.036Z,995.21
2017-12-27T00:56:55.173Z,995.14
2017-12-27T00:58:17.409Z,995.1
2017-12-27T00:59:39.261Z,995.14
2017-12-27T01:01:01.128Z,995.13
2017-12-27T01:02:23.031Z,995.14
2017-12-27T01:03:44.878Z,995.12
2017-12-27T01:05:06.501Z,995.09
2017-12-27T01:06:28.616Z,995.03
2017-12-27T01:07:50.548Z,995.02
2017-12-27T01:09:12.685Z,995
2017-12-27T01:10:34.656Z,994.96
2017-12-27T01:11:56.764Z,994.96
2017-12-27T01:13:18.366Z,994.96
2017-12-27T01:14:40.225Z,994.95
2017-12-27T01:16:01.841Z,994.93
2017-12-27T01:17:23.434Z,994.9
2017-12-27T01:18:45.283Z,994.9
2017-12-27T01:20:07.407Z,994.91
2017-12-27T01:21:29.565Z,994.91
2017-12-27T01:22:51.539Z,994.86
2017-12-27T01:24:13.146Z,994.84
2017-12-27T01:25:34.784Z,994.87
2017-12-27T01:26:56.394Z,994.77
2017-12-27T01:28:18.295Z,994.81
2017-12-27T01:29:39.611Z,994.8
2017-12-27T01:31:00.954Z,994.78
2017-12-27T01:32:23.369Z,994.76
2017-12-27T01:33:44.949Z,994.75
2017-12-27T01:35:06.361Z,994.73
2017-12-27T01:36:28.345Z,994.75
2017-12-27T01:37:49.696Z,994.7
2017-12-27T01:39:11.577Z,994.63
2017-12-27T01:40:33.766Z,994.58
2017-12-27T01:41:55.433Z,994.51
2017-12-27T01:43:17.343Z,994.45
2017-12-27T01:44:38.965Z,994.39
2017-12-27T01:46:00.319Z,994.33
2017-12-27T01:47:22.215Z,994.24
2017-12-27T01:48:44.099Z,994.15
2017-12-27T01:50:06.344Z,994.19
2017-12-27T01:51:28.444Z,994.16
2017-12-27T01:52:50.141Z,994.06
2017-12-27T01:54:11.744Z,994.06
2017-12-27T01:55:33.875Z,994.04
2017-12-27T01:56:55.732Z,993.98
2017-12-27T01:58:17.459Z,993.93
2017-12-27T01:59:39.122Z,993.88
2017-12-27T02:01:01.265Z,993.84
2017-12-27T02:02:23.101Z,993.8
2017-12-27T02:03:44.434Z,993.77
2017-12-27T02:05:06.463Z,993.72
2017-12-27T02:06:28.116Z,993.71
2017-12-27T02:07:50.137Z,993.69
2017-12-27T02:09:12.009Z,993.66
2017-12-27T02:10:33.898Z,993.61
2017-12-27T02:11:55.504Z,993.68
2017-12-27T02:13:17.465Z,993.56
2017-12-27T02:14:39.330Z,993.5
2017-12-27T02:16:01.175Z,993.44
2017-12-27T02:17:22.524Z,993.46
2017-12-27T02:18:43.619Z,993.46
2017-12-27T02:20:05.452Z,993.45
2017-12-27T02:21:27.178Z,993.45
2017-12-27T02:22:49.312Z,993.43
2017-12-27T02:24:11.010Z,993.43
2017-12-27T02:25:32.365Z,993.36
2017-12-27T02:26:53.955Z,993.31
2017-12-27T02:28:15.476Z,993.2
2017-12-27T02:29:37.342Z,993.19
2017-12-27T02:30:59.030Z,993.14
2017-12-27T02:32:20.097Z,993.14
2017-12-27T02:33:41.714Z,993.09
2017-12-27T02:35:03.665Z,993.07
2017-12-27T02:36:25.255Z,993.07
2017-12-27T02:37:46.726Z,993.01
2017-12-27T02:39:08.325Z,993
2017-12-27T02:40:29.918Z,993
2017-12-27T02:41:51.244Z,993.02
2017-12-27T02:43:12.835Z,992.95
2017-12-27T02:44:34.685Z,992.93
2017-12-27T02:45:56.381Z,992.88
2017-12-27T02:47:18.125Z,992.86
2017-12-27T02:48:39.976Z,992.86
2017-12-27T02:50:01.316Z,992.84
2017-12-27T02:51:23.334Z,992.76
2017-12-27T02:52:44.924Z,992.71
2017-12-27T02:54:07.096Z,992.68
2017-12-27T02:55:28.556Z,992.66
2017-12-27T02:56:50.146Z,992.65
2017-12-27T02:58:12.260Z,992.7
2017-12-27T02:59:34.003Z,992.66
2017-12-27T03:00:55.605Z,992.66
2017-12-27T03:02:17.465Z,992.61
2017-12-27T03:03:39.795Z,992.61
2017-12-27T03:05:01.392Z,992.59
2017-12-27T03:06:22.716Z,992.53
2017-12-27T03:07:44.418Z,992.51
2017-12-27T03:09:06.649Z,992.47
2017-12-27T03:10:28.238Z,992.43
2017-12-27T03:11:49.895Z,992.38
2017-12-27T03:13:11.766Z,992.37
2017-12-27T03:14:33.189Z,992.27
2017-12-27T03:15:55.032Z,992.25
2017-12-27T03:17:16.875Z,992.16
2017-12-27T03:18:38.004Z,992.14
2017-12-27T03:19:59.927Z,992.14
2017-12-27T03:21:21.795Z,992.11
2017-12-27T03:22:43.386Z,992.05
2017-12-27T03:24:05.418Z,991.93
2017-12-27T03:25:27.045Z,991.91
2017-12-27T03:26:48.868Z,991.91
2017-12-27T03:28:10.514Z,991.83
2017-12-27T03:29:32.159Z,991.8
2017-12-27T03:30:54.266Z,991.88
2017-12-27T03:32:16.368Z,991.79
2017-12-27T03:33:37.434Z,991.74
2017-12-27T03:34:59.273Z,991.73
2017-12-27T03:36:21.145Z,991.82
2017-12-27T03:37:43.006Z,991.85
2017-12-27T03:39:04.845Z,991.84
2017-12-27T03:40:26.222Z,991.81
2017-12-27T03:41:48.024Z,991.82
2017-12-27T03:43:09.864Z,991.72
2017-12-27T03:44:31.206Z,991.72
2017-12-27T03:45:53.337Z,991.67
2017-12-27T03:47:14.915Z,991.65
2017-12-27T03:48:36.865Z,991.68
2017-12-27T03:49:58.476Z,991.66
2017-12-27T03:51:19.804Z,991.55
2017-12-27T03:52:41.398Z,991.53
2017-12-27T03:54:03.514Z,991.44
2017-12-27T03:55:24.863Z,991.41
2017-12-27T03:56:46.739Z,991.35
2017-12-27T03:58:08.648Z,991.37
2017-12-27T03:59:30.465Z,991.37
2017-12-27T04:00:51.773Z,991.39
2017-12-27T04:02:13.624Z,991.29
2017-12-27T04:03:35.469Z,991.28
2017-12-27T04:04:57.418Z,991.3
2017-12-27T04:06:19.330Z,991.36
2017-12-27T04:07:41.275Z,991.34
2017-12-27T04:09:02.864Z,991.28
2017-12-27T04:10:24.476Z,991.29
2017-12-27T04:11:46.421Z,991.23
2017-12-27T04:13:08.214Z,991.22
2017-12-27T04:14:30.079Z,991.17
2017-12-27T04:15:52.194Z,991.08
2017-12-27T04:17:13.885Z,991.05
2017-12-27T04:18:35.475Z,991.03
2017-12-27T04:19:57.410Z,990.99
2017-12-27T04:21:19.577Z,991
2017-12-27T04:22:41.427Z,990.96
2017-12-27T04:24:03.025Z,990.97
2017-12-27T04:25:25.002Z,990.97
2017-12-27T04:26:46.652Z,990.92
2017-12-27T04:28:08.534Z,990.84
2017-12-27T04:29:30.378Z,990.75
2017-12-27T04:30:51.965Z,990.76
2017-12-27T04:32:13.557Z,990.72
2017-12-27T04:33:35.154Z,990.67
2017-12-27T04:34:57.024Z,990.67
2017-12-27T04:36:18.720Z,990.69
2017-12-27T04:37:40.074Z,990.7
2017-12-27T04:39:02.198Z,990.72
2017-12-27T04:40:23.791Z,990.63
2017-12-27T04:41:45.761Z,990.64
2017-12-27T04:43:07.851Z,990.59
2017-12-27T04:44:29.424Z,990.58
2017-12-27T04:45:51.397Z,990.58
2017-12-27T04:47:12.747Z,990.53
2017-12-27T04:48:34.705Z,990.53
2017-12-27T04:49:56.398Z,990.49
2017-12-27T04:51:17.985Z,990.54
2017-12-27T04:52:39.314Z,990.55
2017-12-27T04:54:00.791Z,990.53
2017-12-27T04:55:22.653Z,990.46
2017-12-27T04:56:44.245Z,990.48
2017-12-27T04:58:05.586Z,990.42
2017-12-27T04:59:27.751Z,990.39
2017-12-27T05:00:49.194Z,990.34
2017-12-27T05:02:11.320Z,990.34
2017-12-27T05:03:33.027Z,990.31
2017-12-27T05:04:54.976Z,990.29
2017-12-27T05:06:16.965Z,990.27
2017-12-27T05:07:38.857Z,990.27
2017-12-27T05:09:00.452Z,990.24
2017-12-27T05:10:21.516Z,990.14
2017-12-27T05:11:43.475Z,990.22
2017-12-27T05:13:05.305Z,990.11
2017-12-27T05:14:27.158Z,990.07
2017-12-27T05:15:49.057Z,990.05
2017-12-27T05:17:10.674Z,990.05
2017-12-27T05:18:32.541Z,990.01
2017-12-27T05:19:54.278Z,989.99
2017-12-27T05:21:16.393Z,990.04
2017-12-27T05:22:37.835Z,989.97
2017-12-27T05:23:59.708Z,989.94
2017-12-27T05:25:21.064Z,989.91
2017-12-27T05:26:42.963Z,989.92
2017-12-27T05:28:04.281Z,989.93
2017-12-27T05:29:25.934Z,989.86
2017-12-27T05:30:48.067Z,989.89
2017-12-27T05:32:10.077Z,989.91
2017-12-27T05:33:32.194Z,989.89
2017-12-27T05:34:54.058Z,989.89
2017-12-27T05:36:16.266Z,989.88
2017-12-27T05:37:38.347Z,989.83
2017-12-27T05:38:59.688Z,989.79
2017-12-27T05:40:21.558Z,989.74
2017-12-27T05:41:43.164Z,989.73
2017-12-27T05:43:05.124Z,989.69
2017-12-27T05:44:26.869Z,989.65
2017-12-27T05:45:48.008Z,989.67
2017-12-27T05:47:10.235Z,989.63
2017-12-27T05:48:32.331Z,989.63
2017-12-27T05:49:53.985Z,989.53
2017-12-27T05:51:15.964Z,989.44
2017-12-27T05:52:37.574Z,989.44
2017-12-27T05:53:59.425Z,989.4
2017-12-27T05:55:21.187Z,989.37
2017-12-27T05:56:42.525Z,989.38
2017-12-27T05:58:04.155Z,989.35
2017-12-27T05:59:25.233Z,989.36
2017-12-27T06:00:46.584Z,989.27
2017-12-27T06:02:08.172Z,989.29
2017-12-27T06:03:29.496Z,989.28
2017-12-27T06:04:51.404Z,989.27
2017-12-27T06:06:13.042Z,989.31
2017-12-27T06:07:34.744Z,989.23
2017-12-27T06:08:56.585Z,989.31
2017-12-27T06:10:18.208Z,989.3
2017-12-27T06:11:40.072Z,989.2
2017-12-27T06:13:01.667Z,989.18
2017-12-27T06:14:23.267Z,989.14
2017-12-27T06:15:44.597Z,989.14
2017-12-27T06:17:06.302Z,989.06
2017-12-27T06:18:28.247Z,988.92
2017-12-27T06:19:50.113Z,988.95
2017-12-27T06:21:12.154Z,988.96
2017-12-27T06:22:33.503Z,988.94
2017-12-27T06:23:55.723Z,988.92
2017-12-27T06:25:17.372Z,988.84
2017-12-27T06:26:39.224Z,988.82
2017-12-27T06:28:00.814Z,988.75
2017-12-27T06:29:22.154Z,988.72
2017-12-27T06:30:44.018Z,988.72
2017-12-27T06:32:05.894Z,988.75
2017-12-27T06:33:27.742Z,988.68
2017-12-27T06:34:49.321Z,988.65
2017-12-27T06:36:10.904Z,988.58
2017-12-27T06:37:32.613Z,988.58
2017-12-27T06:38:54.585Z,988.51
2017-12-27T06:40:16.154Z,988.48
2017-12-27T06:41:38.060Z,988.41
2017-12-27T06:42:59.923Z,988.45
2017-12-27T06:44:21.490Z,988.38
2017-12-27T06:45:43.367Z,988.31
2017-12-27T06:47:04.682Z,988.36
2017-12-27T06:48:26.536Z,988.29
2017-12-27T06:49:47.614Z,988.25
2017-12-27T06:51:09.524Z,988.16
2017-12-27T06:52:31.631Z,988.18
2017-12-27T06:53:53.752Z,988.12
2017-12-27T06:55:15.124Z,988.1
2017-12-27T06:56:36.776Z,988.13
2017-12-27T06:57:58.378Z,988.11
2017-12-27T06:59:20.274Z,988.12
2017-12-27T07:00:41.846Z,988.09
2017-12-27T07:02:03.175Z,988.1
2017-12-27T07:03:24.513Z,988.09
2017-12-27T07:04:46.165Z,988.05
2017-12-27T07:06:08.274Z,988.03
2017-12-27T07:07:29.856Z,987.99
2017-12-27T07:08:51.730Z,988
2017-12-27T07:10:13.064Z,988.01
2017-12-27T07:11:34.785Z,987.94
2017-12-27T07:12:56.870Z,987.96
2017-12-27T07:14:18.504Z,987.98
2017-12-27T07:15:40.365Z,987.95
2017-12-27T07:17:02.625Z,987.94
2017-12-27T07:18:24.547Z,987.95
2017-12-27T07:19:46.681Z,987.88
2017-12-27T07:21:08.036Z,987.96
2017-12-27T07:22:29.612Z,987.87
2017-12-27T07:23:51.053Z,987.9
2017-12-27T07:25:12.648Z,987.9
2017-12-27T07:26:34.494Z,987.8
2017-12-27T07:27:55.874Z,987.81
2017-12-27T07:29:17.622Z,987.79
2017-12-27T07:30:38.965Z,987.74
2017-12-27T07:32:00.552Z,987.7
2017-12-27T07:33:22.674Z,987.71
2017-12-27T07:34:44.806Z,987.68
2017-12-27T07:36:06.774Z,987.67
2017-12-27T07:37:28.184Z,987.7
2017-12-27T07:38:49.953Z,987.68
2017-12-27T07:40:12.105Z,987.64
2017-12-27T07:41:34.024Z,987.7
2017-12-27T07:42:55.375Z,987.71
2017-12-27T07:44:17.234Z,987.68
2017-12-27T07:45:38.924Z,987.65
2017-12-27T07:47:00.775Z,987.68
2017-12-27T07:48:22.762Z,987.68
2017-12-27T07:49:44.356Z,987.67
2017-12-27T07:51:06.455Z,987.63
2017-12-27T07:52:28.434Z,987.66
2017-12-27T07:53:50.067Z,987.64
2017-12-27T07:55:11.911Z,987.56
2017-12-27T07:56:33.804Z,987.56
2017-12-27T07:57:55.514Z,987.55
2017-12-27T07:59:17.119Z,987.52
2017-12-27T08:00:38.752Z,987.47
2017-12-27T08:02:00.226Z,987.47
2017-12-27T08:03:22.138Z,987.46
2017-12-27T08:04:43.730Z,987.41
2017-12-27T08:06:05.335Z,987.43
2017-12-27T08:07:26.924Z,987.42
2017-12-27T08:08:48.711Z,987.44
2017-12-27T08:10:09.526Z,987.48
2017-12-27T08:11:31.175Z,987.38
2017-12-27T08:12:53.295Z,987.4
2017-12-27T08:14:15.138Z,987.37
2017-12-27T08:15:36.464Z,987.35
2017-12-27T08:16:58.342Z,987.35
2017-12-27T08:18:20.263Z,987.29
2017-12-27T08:19:42.648Z,987.35
2017-12-27T08:21:04.898Z,987.3
2017-12-27T08:22:26.911Z,987.3
2017-12-27T08:23:47.989Z,987.29
2017-12-27T08:25:09.971Z,987.29
2017-12-27T08:26:31.381Z,987.3
2017-12-27T08:27:52.757Z,987.28
2017-12-27T08:29:14.874Z,987.32
2017-12-27T08:30:36.303Z,987.3
2017-12-27T08:31:58.214Z,987.24
2017-12-27T08:33:19.877Z,987.24
2017-12-27T08:34:41.808Z,987.22
2017-12-27T08:36:03.426Z,987.2
2017-12-27T08:37:25.023Z,987.22
2017-12-27T08:38:46.704Z,987.19
2017-12-27T08:40:08.864Z,987.17
2017-12-27T08:41:30.984Z,987.23
2017-12-27T08:42:53.093Z,987.19
2017-12-27T08:44:14.680Z,987.22
2017-12-27T08:45:36.019Z,987.26
2017-12-27T08:46:57.606Z,987.24
2017-12-27T08:48:19.830Z,987.24
2017-12-27T08:49:42.204Z,987.22
2017-12-27T08:51:03.795Z,987.22
2017-12-27T08:52:25.738Z,987.16
2017-12-27T08:53:47.854Z,987.17
2017-12-27T08:55:09.974Z,987.21
2017-12-27T08:56:31.857Z,987.2
2017-12-27T08:57:53.784Z,987.18
2017-12-27T08:59:15.639Z,987.18
2017-12-27T09:00:37.524Z,987.12
2017-12-27T09:01:59.521Z,987.09
2017-12-27T09:03:21.261Z,987.09
2017-12-27T09:04:42.613Z,987.05
2017-12-27T09:06:04.973Z,987.07
2017-12-27T09:07:26.965Z,987.04
2017-12-27T09:08:48.835Z,987.02
2017-12-27T09:10:10.681Z,987.06
2017-12-27T09:11:32.286Z,987.03
2017-12-27T09:12:53.892Z,987.06
2017-12-27T09:14:15.752Z,987.06
2017-12-27T09:15:37.643Z,987.02
2017-12-27T09:16:59.768Z,987.01
2017-12-27T09:18:21.386Z,987.06
2017-12-27T09:19:43.514Z,987.06
2017-12-27T09:21:04.851Z,987.06
2017-12-27T09:22:26.759Z,987.06
2017-12-27T09:23:48.874Z,987.07
2017-12-27T09:25:10.483Z,987.02
2017-12-27T09:26:32.105Z,987.06
2017-12-27T09:27:53.973Z,987.03
2017-12-27T09:29:15.837Z,986.99
2017-12-27T09:30:37.467Z,987.01
2017-12-27T09:31:59.358Z,987.05
2017-12-27T09:33:21.596Z,986.97
2017-12-27T09:34:43.475Z,986.99
2017-12-27T09:36:05.355Z,986.95
2017-12-27T09:37:27.217Z,987.02
2017-12-27T09:38:48.554Z,986.93
2017-12-27T09:40:10.435Z,986.97
2017-12-27T09:41:32.064Z,987.02
2017-12-27T09:42:54.191Z,987.01
2017-12-27T09:44:16.051Z,986.99
2017-12-27T09:45:38.177Z,986.99
2017-12-27T09:47:00.024Z,987.03
2017-12-27T09:48:21.937Z,987.05
2017-12-27T09:49:43.805Z,986.95
2017-12-27T09:51:05.688Z,987.02
2017-12-27T09:52:27.602Z,987.02
2017-12-27T09:53:49.747Z,986.98
2017-12-27T09:55:11.757Z,986.91
2017-12-27T09:56:33.883Z,986.91
2017-12-27T09:57:55.236Z,986.9
2017-12-27T09:59:17.364Z,986.89
2017-12-27T10:00:38.804Z,986.86
2017-12-27T10:02:00.975Z,986.83
2017-12-27T10:03:22.988Z,986.84
2017-12-27T10:04:44.594Z,986.75
2017-12-27T10:06:06.256Z,986.72
2017-12-27T10:07:27.878Z,986.68
2017-12-27T10:08:49.749Z,986.66
2017-12-27T10:10:12.100Z,986.64
2017-12-27T10:11:34.209Z,986.62
2017-12-27T10:12:55.559Z,986.6
2017-12-27T10:14:17.814Z,986.56
2017-12-27T10:15:39.664Z,986.48
2017-12-27T10:17:01.264Z,986.51
2017-12-27T10:18:23.205Z,986.54
2017-12-27T10:19:45.073Z,986.47
2017-12-27T10:21:06.749Z,986.49
2017-12-27T10:22:28.667Z,986.36
2017-12-27T10:23:50.573Z,986.36
2017-12-27T10:25:12.465Z,986.39
2017-12-27T10:26:34.084Z,986.36
2017-12-27T10:27:56.205Z,986.36
2017-12-27T10:29:18.349Z,986.35
2017-12-27T10:30:39.958Z,986.36
2017-12-27T10:32:01.830Z,986.34
2017-12-27T10:33:23.695Z,986.33
2017-12-27T10:34:45.363Z,986.24
2017-12-27T10:36:07.058Z,986.14
2017-12-27T10:37:29.093Z,986.11
2017-12-27T10:38:50.973Z,986.12
2017-12-27T10:40:12.323Z,986.07
2017-12-27T10:41:33.944Z,986.03
2017-12-27T10:42:55.815Z,985.97
2017-12-27T10:44:17.954Z,985.98
2017-12-27T10:45:39.810Z,985.99
2017-12-27T10:47:01.413Z,985.98
2017-12-27T10:48:23.027Z,985.96
2017-12-27T10:49:44.619Z,986.02
2017-12-27T10:51:06.791Z,986.03
2017-12-27T10:52:28.669Z,985.98
2017-12-27T10:53:51.139Z,985.96
2017-12-27T10:55:13.030Z,985.97
2017-12-27T10:56:34.358Z,985.99
2017-12-27T10:57:56.267Z,985.97
2017-12-27T10:59:18.521Z,986
2017-12-27T11:00:40.421Z,985.93
2017-12-27T11:02:02.128Z,985.92
2017-12-27T11:03:23.801Z,985.91
2017-12-27T11:04:45.431Z,985.86
2017-12-27T11:06:07.563Z,985.89
2017-12-27T11:07:29.530Z,985.86
2017-12-27T11:08:50.989Z,985.86
2017-12-27T11:10:13.135Z,985.83
2017-12-27T11:11:35.376Z,985.86
2017-12-27T11:12:57.599Z,985.81
2017-12-27T11:14:19.765Z,985.83
2017-12-27T11:15:41.683Z,985.85
2017-12-27T11:17:03.642Z,985.86
2017-12-27T11:18:25.508Z,985.8
2017-12-27T11:19:47.630Z,985.76
2017-12-27T11:21:09.637Z,985.81
2017-12-27T11:22:31.604Z,985.78
2017-12-27T11:23:53.865Z,985.76
2017-12-27T11:25:15.750Z,985.84
2017-12-27T11:26:37.614Z,985.83
2017-12-27T11:27:59.493Z,985.79
2017-12-27T11:29:21.653Z,985.83
2017-12-27T11:30:43.289Z,985.76
2017-12-27T11:32:05.244Z,985.75
2017-12-27T11:33:27.114Z,985.74
2017-12-27T11:34:49.274Z,985.69
2017-12-27T11:36:10.881Z,985.7
2017-12-27T11:37:32.784Z,985.73
2017-12-27T11:38:54.420Z,985.68
2017-12-27T11:40:16.597Z,985.64
2017-12-27T11:41:38.875Z,985.6
2017-12-27T11:43:00.480Z,985.55
2017-12-27T11:44:22.093Z,985.61
2017-12-27T11:45:43.244Z,985.59
2017-12-27T11:47:05.110Z,985.6
2017-12-27T11:48:27.447Z,985.57
2017-12-27T11:49:49.664Z,985.59
2017-12-27T11:51:11.288Z,985.52
2017-12-27T11:52:33.268Z,985.46
2017-12-27T11:53:55.174Z,985.51
2017-12-27T11:55:17.444Z,985.46
2017-12-27T11:56:39.314Z,985.48
2017-12-27T11:58:01.425Z,985.5
2017-12-27T11:59:23.350Z,985.49
2017-12-27T12:00:45.479Z,985.49
2017-12-27T12:02:07.438Z,985.44
2017-12-27T12:03:29.334Z,985.46
2017-12-27T12:04:51.491Z,985.41
2017-12-27T12:06:13.628Z,985.4
2017-12-27T12:07:35.807Z,985.37
2017-12-27T12:08:57.434Z,985.39
2017-12-27T12:10:19.311Z,985.31
2017-12-27T12:11:41.223Z,985.4
2017-12-27T12:13:02.905Z,985.38
2017-12-27T12:14:24.243Z,985.35
2017-12-27T12:15:45.865Z,985.35
2017-12-27T12:17:08.337Z,985.4
2017-12-27T12:18:30.615Z,985.4
2017-12-27T12:19:52.803Z,985.38
2017-12-27T12:21:14.674Z,985.37
2017-12-27T12:22:36.299Z,985.34
2017-12-27T12:23:58.443Z,985.25
2017-12-27T12:25:19.523Z,985.27
2017-12-27T12:26:41.236Z,985.27
2017-12-27T12:28:03.407Z,985.3
2017-12-27T12:29:25.281Z,985.24
2017-12-27T12:30:47.153Z,985.26
2017-12-27T12:32:09.019Z,985.23
2017-12-27T12:33:31.026Z,985.25
2017-12-27T12:34:52.724Z,985.2
2017-12-27T12:36:14.943Z,985.18
2017-12-27T12:37:36.544Z,985.19
2017-12-27T12:38:58.800Z,985.16
2017-12-27T12:40:20.399Z,985.13
2017-12-27T12:41:42.528Z,985.12
2017-12-27T12:43:04.761Z,985.08
2017-12-27T12:44:26.876Z,985.04
2017-12-27T12:45:48.486Z,985.04
2017-12-27T12:47:10.117Z,984.91
2017-12-27T12:48:32.270Z,984.97
2017-12-27T12:49:54.126Z,984.85
2017-12-27T12:51:16.104Z,984.92
2017-12-27T12:52:37.444Z,984.9
2017-12-27T12:53:59.080Z,984.83
2017-12-27T12:55:20.686Z,984.82
2017-12-27T12:56:42.545Z,984.78
2017-12-27T12:58:04.422Z,984.76
2017-12-27T12:59:26.574Z,984.7
2017-12-27T13:00:48.459Z,984.72
2017-12-27T13:02:10.664Z,984.68
2017-12-27T13:03:32.532Z,984.62
2017-12-27T13:04:54.667Z,984.6
2017-12-27T13:06:16.349Z,984.58
2017-12-27T13:07:38.238Z,984.53
2017-12-27T13:08:59.886Z,984.59
2017-12-27T13:10:22.045Z,984.59
2017-12-27T13:11:44.200Z,984.58
2017-12-27T13:13:06.143Z,984.58
2017-12-27T13:14:28.068Z,984.6
2017-12-27T13:15:50.378Z,984.58
2017-12-27T13:17:12.028Z,984.6
2017-12-27T13:18:33.707Z,984.58
2017-12-27T13:19:55.600Z,984.53
2017-12-27T13:21:17.833Z,984.6
2017-12-27T13:22:39.953Z,984.58
2017-12-27T13:24:01.287Z,984.57
2017-12-27T13:25:23.141Z,984.57
2017-12-27T13:26:45.309Z,984.54
2017-12-27T13:28:06.899Z,984.56
2017-12-27T13:29:28.647Z,984.54
2017-12-27T13:30:50.270Z,984.53
2017-12-27T13:32:12.144Z,984.52
2017-12-27T13:33:34.019Z,984.56
2017-12-27T13:34:56.144Z,984.54
2017-12-27T13:36:18.056Z,984.52
2017-12-27T13:37:40.092Z,984.53
2017-12-27T13:39:01.464Z,984.55
2017-12-27T13:40:23.377Z,984.49
2017-12-27T13:41:45.239Z,984.5
2017-12-27T13:43:07.424Z,984.49
2017-12-27T13:44:29.386Z,984.46
2017-12-27T13:45:51.645Z,984.5
2017-12-27T13:47:13.768Z,984.54
2017-12-27T13:48:35.679Z,984.51
2017-12-27T13:49:57.094Z,984.53
2017-12-27T13:51:19.249Z,984.53
2017-12-27T13:52:41.162Z,984.53
2017-12-27T13:54:03.300Z,984.58
2017-12-27T13:55:24.903Z,984.53
2017-12-27T13:56:46.896Z,984.56
2017-12-27T13:58:08.787Z,984.52
2017-12-27T13:59:30.521Z,984.51
2017-12-27T14:00:51.863Z,984.46
2017-12-27T14:02:13.748Z,984.43
2017-12-27T14:03:35.953Z,984.49
2017-12-27T14:04:57.824Z,984.45
2017-12-27T14:06:19.187Z,984.46
2017-12-27T14:07:41.060Z,984.51
2017-12-27T14:09:02.554Z,984.47
2017-12-27T14:10:24.761Z,984.49
2017-12-27T14:11:46.340Z,984.54
2017-12-27T14:13:08.376Z,984.48
2017-12-27T14:14:30.247Z,984.47
2017-12-27T14:15:52.135Z,984.48
2017-12-27T14:17:13.833Z,984.46
2017-12-27T14:18:35.439Z,984.47
2017-12-27T14:19:57.325Z,984.44
2017-12-27T14:21:19.476Z,984.4
2017-12-27T14:22:41.123Z,984.43
2017-12-27T14:24:03.006Z,984.45
2017-12-27T14:25:24.998Z,984.48
2017-12-27T14:26:46.935Z,984.43
2017-12-27T14:28:09.118Z,984.42
2017-12-27T14:29:30.993Z,984.4
2017-12-27T14:30:52.624Z,984.38
2017-12-27T14:32:14.927Z,984.39
2017-12-27T14:33:36.634Z,984.39
2017-12-27T14:34:58.512Z,984.38
2017-12-27T14:36:20.123Z,984.37
2017-12-27T14:37:41.845Z,984.32
2017-12-27T14:39:04.000Z,984.38
2017-12-27T14:40:26.136Z,984.37
2017-12-27T14:41:48.063Z,984.4
2017-12-27T14:43:10.533Z,984.43
2017-12-27T14:44:32.704Z,984.41
2017-12-27T14:45:54.387Z,984.42
2017-12-27T14:47:16.265Z,984.46
2017-12-27T14:48:37.874Z,984.39
2017-12-27T14:49:59.534Z,984.45
2017-12-27T14:51:21.407Z,984.47
2017-12-27T14:52:43.527Z,984.48
2017-12-27T14:54:05.421Z,984.52
2017-12-27T14:55:27.107Z,984.51
2017-12-27T14:56:49.266Z,984.51
2017-12-27T14:58:11.440Z,984.48
2017-12-27T14:59:32.885Z,984.5
2017-12-27T15:00:54.790Z,984.5
2017-12-27T15:02:16.658Z,984.55
2017-12-27T15:03:38.388Z,984.5
2017-12-27T15:05:00.263Z,984.45
2017-12-27T15:06:22.158Z,984.45
2017-12-27T15:07:44.081Z,984.45
2017-12-27T15:09:05.706Z,984.51
2017-12-27T15:10:27.571Z,984.54
2017-12-27T15:11:49.691Z,984.5
2017-12-27T15:13:11.292Z,984.46
2017-12-27T15:14:33.176Z,984.47
2017-12-27T15:15:55.333Z,984.39
2017-12-27T15:17:17.322Z,984.42
2017-12-27T15:18:39.178Z,984.36
2017-12-27T15:20:01.100Z,984.42
2017-12-27T15:21:23.053Z,984.44
2017-12-27T15:22:44.982Z,984.4
2017-12-27T15:24:06.336Z,984.44
2017-12-27T15:25:28.215Z,984.44
2017-12-27T15:26:49.588Z,984.48
2017-12-27T15:28:11.788Z,984.47
2017-12-27T15:29:33.404Z,984.42
2017-12-27T15:30:55.577Z,984.49
2017-12-27T15:32:17.707Z,984.48
2017-12-27T15:33:39.603Z,984.49
2017-12-27T15:35:01.578Z,984.48
2017-12-27T15:36:23.315Z,984.5
2017-12-27T15:37:45.186Z,984.51
2017-12-27T15:39:07.088Z,984.52
2017-12-27T15:40:29.369Z,984.5
2017-12-27T15:41:51.300Z,984.47
2017-12-27T15:43:13.206Z,984.5
2017-12-27T15:44:35.341Z,984.51
2017-12-27T15:45:57.597Z,984.53
2017-12-27T15:47:19.470Z,984.55
2017-12-27T15:48:40.856Z,984.57
2017-12-27T15:50:02.974Z,984.56
2017-12-27T15:51:25.107Z,984.49
2017-12-27T15:52:46.785Z,984.54
2017-12-27T15:54:08.846Z,984.55
2017-12-27T15:55:30.744Z,984.56
2017-12-27T15:56:52.647Z,984.54
2017-12-27T15:58:14.833Z,984.61
2017-12-27T15:59:36.446Z,984.61
2017-12-27T16:00:58.544Z,984.63
2017-12-27T16:02:20.437Z,984.62
2017-12-27T16:03:42.564Z,984.58
2017-12-27T16:05:04.305Z,984.63
2017-12-27T16:06:26.451Z,984.66
2017-12-27T16:07:48.315Z,984.68
2017-12-27T16:09:10.185Z,984.72
2017-12-27T16:10:31.570Z,984.71
2017-12-27T16:11:53.806Z,984.71
2017-12-27T16:13:15.696Z,984.73
2017-12-27T16:14:37.814Z,984.69
2017-12-27T16:15:59.988Z,984.69
2017-12-27T16:17:21.868Z,984.74
2017-12-27T16:18:44.009Z,984.71
2017-12-27T16:20:05.908Z,984.7
2017-12-27T16:21:27.528Z,984.69
2017-12-27T16:22:48.874Z,984.68
2017-12-27T16:24:11.263Z,984.7
2017-12-27T16:25:33.231Z,984.73
2017-12-27T16:26:55.527Z,984.7
2017-12-27T16:28:17.665Z,984.71
2017-12-27T16:29:39.814Z,984.7
2017-12-27T16:31:02.041Z,984.76
2017-12-27T16:32:23.923Z,984.72
2017-12-27T16:33:46.094Z,984.73
2017-12-27T16:35:07.974Z,984.8
2017-12-27T16:36:30.145Z,984.82
2017-12-27T16:37:52.064Z,984.82
2017-12-27T16:39:13.944Z,984.84
2017-12-27T16:40:35.852Z,984.89
2017-12-27T16:41:58.014Z,984.84
2017-12-27T16:43:19.900Z,984.89
2017-12-27T16:44:42.083Z,984.91
2017-12-27T16:46:04.005Z,984.89
2017-12-27T16:47:25.907Z,984.86
2017-12-27T16:48:48.065Z,984.86
2017-12-27T16:50:10.103Z,984.87
2017-12-27T16:51:31.962Z,984.89
2017-12-27T16:52:54.261Z,984.92
2017-12-27T16:54:16.565Z,984.91
2017-12-27T16:55:38.232Z,984.91
2017-12-27T16:57:00.168Z,984.92
2017-12-27T16:58:22.056Z,984.96
2017-12-27T16:59:43.965Z,984.93
2017-12-27T17:01:06.124Z,985.03
2017-12-27T17:02:28.205Z,984.99
2017-12-27T17:03:50.407Z,985.01
2017-12-27T17:05:12.389Z,985.03